Time;durP1;ratioP1;P1;durP2;ratioP2;P2;SDS_P1;SDS_P2;PMS_P1;PMS_P2;Temp;Humidity;BMP_temperature;BMP_pressure;BME280_temperature;BME280_humidity;BME280_pressure;Samples;Min_cycle;Max_cycle;Signal;HPM_P1;HPM_P2
2022/02/15 00:01:10;;;;;;;8.00;6.15;;;8.40;50.80;;;;;;5035078;28;20094;-78
2022/02/15 00:03:36;;;;;;;10.15;7.18;;;8.40;50.80;;;;;;5022085;28;20041;-78
2022/02/15 00:06:02;;;;;;;8.77;6.93;;;8.40;50.70;;;;;;5036684;28;20122;-79
2022/02/15 00:08:28;;;;;;;9.23;6.50;;;8.40;50.70;;;;;;5037229;28;20124;-78
2022/02/15 00:10:54;;;;;;;8.65;6.25;;;8.40;50.70;;;;;;5032922;28;20061;-78
2022/02/15 00:13:20;;;;;;;9.98;6.90;;;8.40;50.70;;;;;;5036262;28;20119;-78
2022/02/15 00:15:46;;;;;;;9.73;6.47;;;8.40;50.70;;;;;;5032725;28;20500;-78
2022/02/15 00:18:12;;;;;;;10.48;6.68;;;8.40;50.70;;;;;;5035576;28;20064;-79
2022/02/15 00:20:39;;;;;;;10.80;6.88;;;8.40;50.80;;;;;;5033876;28;20119;-78
2022/02/15 00:23:05;;;;;;;9.45;7.28;;;8.40;50.70;;;;;;5034879;28;20020;-77
2022/02/15 00:25:31;;;;;;;8.20;6.43;;;8.40;50.80;;;;;;5034764;28;20040;-77
2022/02/15 00:27:57;;;;;;;9.65;7.03;;;8.40;51.00;;;;;;5034762;28;20033;-77
2022/02/15 00:30:23;;;;;;;10.80;7.00;;;8.40;50.70;;;;;;5034508;28;20377;-77
2022/02/15 00:32:49;;;;;;;11.60;6.45;;;8.40;50.70;;;;;;5038291;28;20500;-76
2022/02/15 00:35:16;;;;;;;8.75;6.88;;;8.40;50.70;;;;;;5034491;28;20040;-77
2022/02/15 00:37:43;;;;;;;8.82;6.68;;;8.40;50.80;;;;;;5033803;28;20933;-77
2022/02/15 00:40:10;;;;;;;10.30;6.97;;;8.30;50.70;;;;;;5016662;28;20049;-77
2022/02/15 00:42:36;;;;;;;9.23;6.70;;;8.30;50.80;;;;;;5066179;28;20176;-78
2022/02/15 00:45:04;;;;;;;10.43;6.57;;;8.30;50.80;;;;;;5034467;28;20191;-77
2022/02/15 00:47:30;;;;;;;8.43;6.28;;;8.30;50.80;;;;;;5039269;28;20041;-78
2022/02/15 00:49:58;;;;;;;9.90;7.05;;;8.30;50.80;;;;;;5034272;28;20135;-78
2022/02/15 00:52:24;;;;;;;11.07;7.20;;;8.30;50.80;;;;;;5034921;28;20030;-78
2022/02/15 00:54:50;;;;;;;11.27;6.88;;;8.30;50.80;;;;;;5023005;28;20078;-78
2022/02/15 00:57:16;;;;;;;8.98;6.78;;;8.30;50.90;;;;;;5035761;28;20124;-78
2022/02/15 00:59:42;;;;;;;8.82;6.72;;;8.30;50.90;;;;;;5035258;28;20037;-79
2022/02/15 01:02:09;;;;;;;9.85;7.07;;;8.30;50.90;;;;;;5051072;28;20360;-78
2022/02/15 01:04:35;;;;;;;10.02;7.03;;;8.30;50.90;;;;;;5066180;28;20050;-79
2022/02/15 01:07:01;;;;;;;9.68;6.68;;;8.30;50.90;;;;;;5021089;28;20083;-79
2022/02/15 01:09:26;;;;;;;9.77;7.15;;;8.30;51.00;;;;;;5066401;28;20033;-78
2022/02/15 01:11:53;;;;;;;9.20;6.97;;;8.30;50.90;;;;;;5035169;28;20051;-77
2022/02/15 01:14:20;;;;;;;11.65;7.28;;;8.30;50.90;;;;;;5034351;28;20090;-77
2022/02/15 01:16:46;;;;;;;12.90;7.50;;;8.30;51.00;;;;;;5036511;28;20123;-77
2022/02/15 01:19:12;;;;;;;9.00;6.82;;;8.20;51.00;;;;;;5033500;28;20487;-78
2022/02/15 01:21:38;;;;;;;9.68;7.45;;;8.30;51.00;;;;;;5033958;28;20091;-78
2022/02/15 01:24:04;;;;;;;10.55;7.43;;;8.30;51.10;;;;;;5068217;28;20037;-77
2022/02/15 01:26:31;;;;;;;11.55;7.68;;;8.20;51.10;;;;;;5032717;28;20022;-79
2022/02/15 01:28:57;;;;;;;9.50;7.43;;;8.20;51.10;;;;;;5021502;28;20414;-78
2022/02/15 01:31:24;;;;;;;10.48;7.35;;;8.20;51.00;;;;;;5032970;28;20632;-78
2022/02/15 01:33:50;;;;;;;10.10;7.30;;;8.20;51.10;;;;;;5066310;28;20484;-78
2022/02/15 01:36:16;;;;;;;10.32;7.10;;;8.20;51.10;;;;;;5033091;28;20526;-78
2022/02/15 01:38:43;;;;;;;9.80;7.40;;;8.20;51.20;;;;;;5038458;28;20098;-78
2022/02/15 01:41:09;;;;;;;12.40;7.60;;;8.20;51.20;;;;;;5053278;28;20037;-78
2022/02/15 01:43:40;;;;;;;10.73;7.70;;;8.20;51.20;;;;;;5037938;28;20033;-77
2022/02/15 01:46:08;;;;;;;10.82;7.93;;;8.20;51.30;;;;;;5070361;28;20059;-78
2022/02/15 01:48:36;;;;;;;10.23;8.13;;;8.20;51.30;;;;;;5040050;28;20108;-78
2022/02/15 01:51:06;;;;;;;11.10;7.78;;;8.20;51.30;;;;;;5042191;28;20044;-77
2022/02/15 01:53:33;;;;;;;12.00;8.13;;;8.20;51.30;;;;;;5038799;28;20033;-78
2022/02/15 01:56:00;;;;;;;10.55;7.90;;;8.20;51.40;;;;;;5007539;28;20046;-77
2022/02/15 01:58:29;;;;;;;11.48;7.88;;;8.20;51.40;;;;;;5064018;28;20030;-78
2022/02/15 02:00:56;;;;;;;11.65;8.07;;;8.20;51.50;;;;;;5052355;28;20036;-77
2022/02/15 02:03:33;;;;;;;10.48;7.20;;;8.20;51.50;;;;;;5036630;28;20041;-78
2022/02/15 02:06:00;;;;;;;10.20;7.63;;;8.20;51.50;;;;;;5021272;28;20108;-77
2022/02/15 02:08:34;;;;;;;13.27;7.85;;;8.10;51.60;;;;;;5054676;28;20045;-78
2022/02/15 02:11:03;;;;;;;9.73;7.60;;;8.20;51.70;;;;;;5036195;28;21485;-77
2022/02/15 02:13:48;;;;;;;10.60;7.45;;;8.20;51.70;;;;;;5036503;28;20060;-78
2022/02/15 02:16:14;;;;;;;11.00;7.95;;;8.10;51.70;;;;;;5022889;28;20029;-78
2022/02/15 02:19:06;;;;;;;10.70;7.13;;;8.10;51.70;;;;;;5034909;28;20030;-78
2022/02/15 02:21:38;;;;;;;11.85;8.23;;;8.10;51.80;;;;;;5002682;28;20392;-78
2022/02/15 02:24:05;;;;;;;11.93;7.47;;;8.10;51.80;;;;;;5052174;28;20037;-77
2022/02/15 02:26:32;;;;;;;12.30;8.07;;;8.10;51.80;;;;;;5019709;28;20120;-79
2022/02/15 02:28:58;;;;;;;12.57;7.70;;;8.10;51.90;;;;;;5020226;28;20130;-78
2022/02/15 02:31:28;;;;;;;11.93;7.90;;;8.10;51.90;;;;;;5069184;28;20033;-78
2022/02/15 02:34:02;;;;;;;10.98;8.10;;;8.10;52.00;;;;;;5024980;28;20877;-79
2022/02/15 02:36:29;;;;;;;12.32;8.00;;;8.10;52.00;;;;;;5036079;28;20526;-78
2022/02/15 02:38:55;;;;;;;10.57;7.85;;;8.10;52.00;;;;;;5037936;28;20076;-78
2022/02/15 02:41:21;;;;;;;11.90;8.38;;;8.10;52.10;;;;;;5052124;28;20042;-78
2022/02/15 02:43:48;;;;;;;12.82;8.80;;;8.00;52.00;;;;;;5037169;28;20135;-78
2022/02/15 02:46:14;;;;;;;10.70;7.80;;;8.10;52.10;;;;;;5068062;28;20030;-77
2022/02/15 02:48:45;;;;;;;12.40;8.30;;;8.10;52.10;;;;;;5035347;28;20060;-78
2022/02/15 02:51:11;;;;;;;10.43;8.18;;;8.00;52.10;;;;;;5052260;28;20459;-77
2022/02/15 02:53:37;;;;;;;11.43;8.65;;;8.00;52.10;;;;;;5037378;28;20082;-78
2022/02/15 02:56:04;;;;;;;10.77;7.95;;;8.10;52.20;;;;;;5036712;28;20040;-78
2022/02/15 02:58:33;;;;;;;10.85;8.20;;;8.00;52.20;;;;;;5023104;28;20038;-77
2022/02/15 03:00:59;;;;;;;11.25;8.60;;;8.00;52.20;;;;;;5035057;28;20033;-78
2022/02/15 03:03:30;;;;;;;11.13;7.97;;;8.00;52.30;;;;;;5036356;28;20124;-78
2022/02/15 03:05:57;;;;;;;11.75;7.80;;;8.00;52.30;;;;;;5052041;28;20033;-78
2022/02/15 03:08:23;;;;;;;11.68;8.52;;;8.00;52.30;;;;;;5018946;28;20059;-78
2022/02/15 03:10:51;;;;;;;15.55;9.52;;;8.00;52.40;;;;;;5035709;28;20036;-77
2022/02/15 03:13:27;;;;;;;11.73;8.40;;;8.00;52.40;;;;;;5018467;28;20057;-77
2022/02/15 03:15:53;;;;;;;11.73;7.78;;;8.00;52.40;;;;;;5037387;28;20033;-77
2022/02/15 03:18:20;;;;;;;11.98;8.45;;;8.00;52.50;;;;;;5068995;28;20035;-77
2022/02/15 03:20:46;;;;;;;10.90;8.52;;;8.00;52.60;;;;;;5051634;28;20033;-77
2022/02/15 03:23:12;;;;;;;11.25;8.02;;;8.00;52.60;;;;;;5068823;28;20384;-78
2022/02/15 03:25:38;;;;;;;11.88;8.60;;;7.90;52.60;;;;;;5052118;28;20057;-77
2022/02/15 03:28:06;;;;;;;11.90;8.55;;;8.00;52.70;;;;;;5068016;28;20394;-76
2022/02/15 03:30:32;;;;;;;11.93;8.20;;;7.90;52.60;;;;;;5036448;28;20033;-78
2022/02/15 03:32:59;;;;;;;13.88;8.20;;;7.90;52.60;;;;;;5036188;28;20171;-78
2022/02/15 03:35:26;;;;;;;12.75;8.48;;;7.90;52.70;;;;;;5017855;28;20429;-77
2022/02/15 03:38:07;;;;;;;13.65;8.73;;;8.00;52.70;;;;;;5006788;28;20060;-76
2022/02/15 03:43:25;;;;;;;12.13;7.93;;;7.90;52.80;;;;;;5035086;28;20060;-77
2022/02/15 03:45:52;;;;;;;13.20;8.63;;;7.90;52.90;;;;;;5035077;28;20061;-77
2022/02/15 03:48:27;;;;;;;11.80;8.50;;;7.90;53.00;;;;;;5067492;28;20079;-76
2022/02/15 03:50:53;;;;;;;12.55;8.70;;;7.90;53.00;;;;;;5067791;28;20041;-76
2022/02/15 03:53:20;;;;;;;13.02;8.55;;;7.90;53.00;;;;;;5068588;28;20041;-76
2022/02/15 03:55:47;;;;;;;12.85;8.57;;;7.90;53.10;;;;;;5038538;28;20077;-77
2022/02/15 03:58:14;;;;;;;11.85;8.85;;;7.90;53.10;;;;;;5049143;28;20091;-77
2022/02/15 04:00:41;;;;;;;12.35;8.20;;;7.90;53.30;;;;;;5033858;28;20102;-77
2022/02/15 04:03:16;;;;;;;14.52;9.23;;;7.90;53.30;;;;;;5050663;28;20470;-76
2022/02/15 04:05:45;;;;;;;13.05;8.20;;;7.90;53.30;;;;;;5033176;28;20035;-77
2022/02/15 04:08:11;;;;;;;12.20;8.90;;;7.90;53.30;;;;;;5050228;28;20460;-76
2022/02/15 04:10:38;;;;;;;11.60;8.70;;;7.90;53.30;;;;;;5066307;28;20052;-77
2022/02/15 04:13:05;;;;;;;12.75;8.43;;;7.90;53.30;;;;;;5067161;28;20029;-78
2022/02/15 04:15:31;;;;;;;12.07;8.70;;;8.00;53.30;;;;;;5036790;28;20029;-76
2022/02/15 04:17:58;;;;;;;13.65;8.45;;;7.90;53.30;;;;;;5035309;28;20499;-77
2022/02/15 04:20:25;;;;;;;10.95;8.73;;;7.90;53.30;;;;;;5035201;28;20023;-77
2022/02/15 04:22:51;;;;;;;11.80;8.73;;;7.90;53.40;;;;;;5035436;28;20036;-77
2022/02/15 04:25:19;;;;;;;14.93;8.82;;;7.90;53.40;;;;;;5021625;28;20037;-78
2022/02/15 04:27:45;;;;;;;12.02;8.45;;;7.90;53.40;;;;;;4992859;28;20039;-77
2022/02/15 04:30:13;;;;;;;12.35;9.00;;;7.90;53.40;;;;;;5033852;28;20034;-76
2022/02/15 04:32:44;;;;;;;12.27;8.40;;;7.90;53.40;;;;;;5033101;28;20117;-76
2022/02/15 04:35:10;;;;;;;13.88;9.82;;;7.90;53.40;;;;;;4993012;28;20507;-76
2022/02/15 04:37:37;;;;;;;13.05;9.25;;;7.90;53.40;;;;;;5034346;28;20098;-76
2022/02/15 04:40:04;;;;;;;11.60;8.68;;;7.90;53.40;;;;;;5033775;28;20036;-75
2022/02/15 04:42:31;;;;;;;13.05;9.23;;;7.90;53.40;;;;;;5067629;28;20032;-76
2022/02/15 04:44:58;;;;;;;13.95;8.95;;;7.90;53.40;;;;;;5065518;28;20459;-78
2022/02/15 04:47:37;;;;;;;11.40;9.13;;;7.90;53.40;;;;;;5031644;28;20488;-75
2022/02/15 04:50:05;;;;;;;12.90;8.60;;;7.90;53.40;;;;;;5032939;28;20040;-78
2022/02/15 04:52:32;;;;;;;11.20;8.52;;;7.90;53.50;;;;;;5034343;28;20033;-77
2022/02/15 04:55:00;;;;;;;12.05;8.23;;;7.90;53.50;;;;;;5050678;28;20659;-77
2022/02/15 04:57:26;;;;;;;12.45;8.68;;;7.90;53.40;;;;;;5022548;28;20041;-77
2022/02/15 04:59:53;;;;;;;13.30;9.15;;;7.90;53.40;;;;;;5065825;28;20041;-76
2022/02/15 05:02:25;;;;;;;12.27;8.45;;;7.90;53.40;;;;;;5034380;28;20038;-78
2022/02/15 05:04:53;;;;;;;12.02;8.65;;;7.90;53.30;;;;;;5038933;28;20069;-77
2022/02/15 05:07:37;;;;;;;12.85;9.45;;;7.80;53.20;;;;;;5048564;28;20539;-78
2022/02/15 05:10:05;;;;;;;15.43;9.45;;;7.80;53.10;;;;;;5038757;28;20041;-79
2022/02/15 05:12:37;;;;;;;11.60;8.43;;;7.80;53.20;;;;;;5066092;28;20036;-79
2022/02/15 05:15:09;;;;;;;14.52;9.57;;;7.80;53.10;;;;;;5025455;28;20539;-77
2022/02/15 05:17:52;;;;;;;11.85;9.05;;;7.80;53.10;;;;;;5053439;28;20030;-78
2022/02/15 05:20:19;;;;;;;14.63;9.57;;;7.80;53.10;;;;;;5020942;28;20069;-78
2022/02/15 05:22:45;;;;;;;11.93;8.95;;;7.80;53.10;;;;;;5036747;28;20037;-78
2022/02/15 05:25:13;;;;;;;12.77;9.50;;;7.80;53.20;;;;;;5021507;28;20127;-78
2022/02/15 05:27:40;;;;;;;12.65;9.23;;;7.80;53.10;;;;;;5053432;28;20051;-77
2022/02/15 05:30:16;;;;;;;12.70;8.63;;;7.80;53.20;;;;;;5040582;28;20041;-77
2022/02/15 05:33:02;;;;;;;;;;;7.80;53.10;;;;;;5026981;28;20061;-77
2022/02/15 05:35:29;;;;;;;13.45;8.68;;;7.80;53.10;;;;;;5037611;28;20065;-78
2022/02/15 05:37:55;;;;;;;12.80;9.30;;;7.80;53.00;;;;;;5069876;28;20036;-77
2022/02/15 05:40:30;;;;;;;13.02;9.18;;;7.80;53.00;;;;;;5003452;28;20044;-78
2022/02/15 05:43:00;;;;;;;10.68;8.27;;;7.80;53.10;;;;;;5039460;28;20040;-78
2022/02/15 05:45:28;;;;;;;12.75;8.55;;;7.80;53.00;;;;;;5039884;28;20052;-78
2022/02/15 05:48:23;;;;;;;12.15;8.38;;;7.90;53.00;;;;;;5033812;28;20079;-82
2022/02/15 05:50:56;;;;;;;11.93;8.30;;;7.90;53.10;;;;;;5039308;28;20132;-81
2022/02/15 05:53:37;;;;;;;12.30;8.18;;;8.00;53.90;;;;;;5009697;28;20028;-81
2022/02/15 05:56:05;;;;;;;13.35;8.20;;;8.10;54.80;;;;;;5019529;28;20033;-79
2022/02/15 05:58:40;;;;;;;11.80;8.80;;;8.10;55.50;;;;;;5053758;28;20752;-81
2022/02/15 06:01:17;;;;;;;12.73;8.00;;;8.20;55.90;;;;;;5037879;28;20063;-81
2022/02/15 06:06:35;;;;;;;10.48;7.95;;;8.40;56.50;;;;;;5035458;28;20029;-81
2022/02/15 06:09:02;;;;;;;11.93;7.53;;;8.40;56.70;;;;;;5017874;28;20243;-81
2022/02/15 06:11:28;;;;;;;11.27;8.07;;;8.50;56.70;;;;;;5034923;28;20139;-81
2022/02/15 06:13:55;;;;;;;13.32;7.72;;;8.50;56.60;;;;;;5034115;28;20152;-82
2022/02/15 06:16:25;;;;;;;9.50;7.45;;;8.60;56.60;;;;;;5034329;28;20490;-82
2022/02/15 06:18:56;;;;;;;12.05;7.97;;;8.60;56.60;;;;;;5008232;28;20601;-80
2022/02/15 06:21:28;;;;;;;10.15;7.55;;;8.70;56.80;;;;;;5050757;28;20049;-80
2022/02/15 06:23:57;;;;;;;11.77;7.55;;;8.70;56.70;;;;;;5033657;28;20042;-81
2022/02/15 06:26:23;;;;;;;12.93;7.40;;;8.80;56.80;;;;;;5035444;28;20029;-82
2022/02/15 06:29:24;;;;;;;10.07;7.40;;;8.80;56.80;;;;;;4977298;28;20531;-82
2022/02/15 06:31:58;;;;;;;9.93;7.47;;;8.90;56.80;;;;;;5011465;28;20029;-82
2022/02/15 06:34:25;;;;;;;10.23;7.43;;;9.00;56.80;;;;;;5033905;28;20470;-82
2022/02/15 06:36:56;;;;;;;10.35;7.13;;;9.00;56.80;;;;;;5037798;28;20038;-83
2022/02/15 06:39:24;;;;;;;9.75;7.45;;;9.00;56.80;;;;;;5049160;28;20064;-82
2022/02/15 06:41:53;;;;;;;10.90;7.03;;;9.10;56.80;;;;;;5050841;28;20419;-82
2022/02/15 06:44:20;;;;;;;10.73;7.50;;;9.10;56.80;;;;;;5020304;28;20059;-82
2022/02/15 06:46:48;;;;;;;8.82;7.30;;;9.20;56.90;;;;;;5033523;28;20056;-80
2022/02/15 06:49:19;;;;;;;8.45;6.63;;;9.20;56.90;;;;;;5007035;28;20040;-80
2022/02/15 06:52:05;;;;;;;10.05;6.60;;;9.30;57.00;;;;;;5062718;28;20030;-83
2022/02/15 06:54:31;;;;;;;11.25;7.03;;;9.40;57.10;;;;;;5023325;28;20063;-82
2022/02/15 06:57:02;;;;;;;11.05;7.13;;;9.40;57.10;;;;;;5050706;28;20037;-80
2022/02/15 06:59:31;;;;;;;10.35;7.30;;;9.40;57.20;;;;;;5034511;28;20034;-82
2022/02/15 07:01:57;;;;;;;12.75;7.95;;;9.50;57.30;;;;;;5034241;28;20502;-80
2022/02/15 07:04:25;;;;;;;11.07;6.80;;;9.50;57.20;;;;;;5033839;28;20115;-80
2022/02/15 07:06:56;;;;;;;9.48;6.40;;;9.60;57.30;;;;;;5017281;28;20045;-80
2022/02/15 07:09:23;;;;;;;9.95;6.82;;;9.60;57.30;;;;;;5035203;28;20076;-81
2022/02/15 07:12:03;;;;;;;10.35;6.43;;;9.70;57.30;;;;;;5067874;28;20406;-80
2022/02/15 07:14:37;;;;;;;8.55;6.75;;;9.70;57.30;;;;;;5050764;28;20670;-81
2022/02/15 07:17:04;;;;;;;9.90;6.93;;;9.80;57.40;;;;;;5050859;28;20037;-80
2022/02/15 07:19:32;;;;;;;9.40;6.75;;;9.90;57.40;;;;;;5033705;28;20029;-80
2022/02/15 07:22:21;;;;;;;8.75;6.93;;;9.90;57.40;;;;;;4976027;28;21478;-82
2022/02/15 07:25:02;;;;;;;11.98;7.38;;;10.00;57.40;;;;;;4961014;28;20046;-83
2022/02/15 07:27:44;;;;;;;8.80;6.63;;;10.00;57.40;;;;;;4975325;28;20045;-80
2022/02/15 07:30:13;;;;;;;11.90;7.40;;;10.00;57.40;;;;;;4974811;28;20088;-81
2022/02/15 07:32:50;;;;;;;9.73;6.28;;;10.10;57.50;;;;;;4959161;28;20485;-81
2022/02/15 07:35:16;;;;;;;10.18;7.18;;;10.10;57.50;;;;;;4964651;28;20617;-81
2022/02/15 07:37:49;;;;;;;9.88;6.63;;;10.10;57.40;;;;;;4975146;28;20042;-81
2022/02/15 07:40:19;;;;;;;9.70;7.70;;;10.20;57.50;;;;;;4974835;28;20121;-80
2022/02/15 07:42:45;;;;;;;10.00;7.30;;;10.20;57.50;;;;;;4974693;28;20512;-81
2022/02/15 07:45:17;;;;;;;9.38;7.13;;;10.30;57.60;;;;;;4958782;28;20085;-81
2022/02/15 07:47:50;;;;;;;10.07;7.03;;;10.30;57.50;;;;;;4975186;28;20078;-80
2022/02/15 07:50:18;;;;;;;10.25;7.40;;;10.30;57.50;;;;;;4959075;28;20165;-82
2022/02/15 07:52:47;;;;;;;10.07;6.82;;;10.40;57.60;;;;;;4973692;28;20047;-82
2022/02/15 07:55:13;;;;;;;10.35;7.65;;;10.40;57.60;;;;;;4974499;28;20074;-81
2022/02/15 07:57:41;;;;;;;9.82;7.38;;;10.50;57.70;;;;;;4958923;28;20713;-82
2022/02/15 08:00:08;;;;;;;10.13;6.82;;;10.50;57.70;;;;;;5023578;28;20511;-80
2022/02/15 08:02:38;;;;;;;11.35;7.38;;;10.50;57.70;;;;;;5033813;28;20060;-81
2022/02/15 08:05:04;;;;;;;11.27;7.00;;;10.60;57.70;;;;;;5033819;28;20056;-82
2022/02/15 08:07:34;;;;;;;10.68;6.75;;;10.60;57.70;;;;;;5051123;28;20515;-82
2022/02/15 08:10:00;;;;;;;8.73;6.45;;;10.60;57.70;;;;;;5023254;28;20036;-82
2022/02/15 08:12:26;;;;;;;9.95;6.70;;;10.70;57.70;;;;;;5049803;28;20565;-83
2022/02/15 08:14:52;;;;;;;13.95;7.18;;;10.70;57.80;;;;;;5050473;28;20029;-82
2022/02/15 08:17:18;;;;;;;9.35;6.75;;;10.70;57.70;;;;;;5033378;28;20411;-81
2022/02/15 08:19:44;;;;;;;10.50;6.40;;;10.70;57.70;;;;;;5016222;28;20049;-81
2022/02/15 08:22:11;;;;;;;7.65;6.38;;;10.80;57.80;;;;;;5002447;28;20041;-82
2022/02/15 08:24:37;;;;;;;9.95;6.88;;;10.80;57.80;;;;;;5066067;28;20129;-82
2022/02/15 08:27:03;;;;;;;9.45;6.88;;;10.80;57.90;;;;;;5048331;28;20041;-82
2022/02/15 08:29:32;;;;;;;9.15;6.63;;;10.90;57.90;;;;;;5020707;28;20056;-81
2022/02/15 08:31:58;;;;;;;10.63;6.57;;;10.90;57.80;;;;;;5035139;28;20025;-81
2022/02/15 08:34:24;;;;;;;8.95;6.78;;;10.90;57.90;;;;;;5034370;28;20041;-81
2022/02/15 08:36:51;;;;;;;10.10;6.40;;;10.90;57.90;;;;;;5033691;28;20504;-80
2022/02/15 08:39:17;;;;;;;11.93;7.03;;;10.90;57.90;;;;;;5032492;28;20038;-80
2022/02/15 08:41:43;;;;;;;10.07;6.90;;;10.90;57.90;;;;;;5032550;28;20119;-80
2022/02/15 08:44:09;;;;;;;8.70;6.47;;;11.00;57.90;;;;;;5033632;28;20025;-81
2022/02/15 08:46:35;;;;;;;8.98;6.53;;;11.00;57.90;;;;;;5032473;28;20099;-81
2022/02/15 08:49:01;;;;;;;11.52;6.82;;;11.00;57.90;;;;;;5033596;28;20045;-80
2022/02/15 08:51:28;;;;;;;11.27;7.72;;;11.10;57.80;;;;;;5048902;28;20165;-81
2022/02/15 08:53:54;;;;;;;11.20;6.82;;;11.10;57.80;;;;;;5066423;28;21067;-81
2022/02/15 08:56:22;;;;;;;10.68;7.38;;;11.10;57.80;;;;;;5034264;28;20120;-82
2022/02/15 08:58:48;;;;;;;9.80;7.25;;;11.10;57.80;;;;;;5053132;28;20033;-82
2022/02/15 09:01:15;;;;;;;9.50;6.60;;;11.20;57.70;;;;;;5002445;28;20516;-81
2022/02/15 09:03:41;;;;;;;8.27;6.38;;;11.20;57.70;;;;;;5033181;28;20443;-80
2022/02/15 09:06:07;;;;;;;9.27;6.45;;;11.20;57.70;;;;;;5004494;28;20124;-83
2022/02/15 09:08:33;;;;;;;8.82;6.85;;;11.20;57.70;;;;;;5018928;28;20034;-83
2022/02/15 09:10:59;;;;;;;9.35;6.75;;;11.20;57.70;;;;;;5020183;28;20065;-81
2022/02/15 09:13:25;;;;;;;10.05;7.15;;;11.20;58.20;;;;;;5029208;28;20068;-83
2022/02/15 09:15:51;;;;;;;10.57;6.57;;;11.20;57.60;;;;;;5047321;28;20034;-81
2022/02/15 09:18:17;;;;;;;10.02;6.53;;;11.30;57.60;;;;;;5048971;28;20053;-80
2022/02/15 09:20:43;;;;;;;12.77;9.05;;;11.30;57.50;;;;;;5033422;28;20450;-83
2022/02/15 09:23:09;;;;;;;14.07;9.25;;;11.30;55.90;;;;;;5035855;28;20495;-84
2022/02/15 09:25:41;;;;;;;12.48;9.35;;;11.30;53.90;;;;;;4992232;28;20115;-84
2022/02/15 09:28:16;;;;;;;13.80;9.27;;;11.30;52.70;;;;;;5016206;28;20091;-84
2022/02/15 09:30:42;;;;;;;14.23;8.50;;;11.20;51.70;;;;;;5018642;28;20041;-82
2022/02/15 09:33:08;;;;;;;13.15;8.65;;;11.10;51.20;;;;;;5066321;28;20025;-84
2022/02/15 09:35:50;;;;;;;12.45;8.90;;;11.10;50.70;;;;;;5032880;28;20029;-84
2022/02/15 09:38:17;;;;;;;12.75;8.85;;;11.00;50.60;;;;;;5031962;28;20578;-82
2022/02/15 09:41:08;;;;;;;13.55;8.77;;;11.00;50.70;;;;;;5032475;28;20530;-81
2022/02/15 09:43:44;;;;;;;13.93;9.15;;;10.90;50.50;;;;;;5033572;28;20044;-83
2022/02/15 09:46:13;;;;;;;12.88;9.13;;;10.90;50.00;;;;;;5004236;28;20033;-81
2022/02/15 09:48:43;;;;;;;18.35;9.63;;;10.80;50.00;;;;;;5031595;28;20071;-81
2022/02/15 09:51:11;;;;;;;12.05;8.85;;;10.80;50.10;;;;;;5007358;28;20043;-81
2022/02/15 09:53:38;;;;;;;13.48;9.43;;;10.80;50.10;;;;;;5015848;28;20499;-84
2022/02/15 09:56:05;;;;;;;15.02;9.35;;;10.70;50.00;;;;;;5034225;28;20407;-82
2022/02/15 09:58:34;;;;;;;11.57;9.07;;;10.70;50.00;;;;;;5020034;28;20044;-82
2022/02/15 10:01:01;;;;;;;13.65;9.35;;;10.70;49.90;;;;;;5032636;28;20029;-83
2022/02/15 10:03:27;;;;;;;13.75;9.30;;;10.60;49.70;;;;;;5041061;28;20515;-82
2022/02/15 10:05:53;;;;;;;15.38;9.70;;;10.60;49.70;;;;;;5036821;28;20131;-83
2022/02/15 10:08:31;;;;;;;15.60;10.23;;;10.60;49.50;;;;;;5037658;28;20033;-83
2022/02/15 10:11:13;;;;;;;15.13;10.25;;;10.50;49.40;;;;;;5036575;28;20533;-83
2022/02/15 10:13:44;;;;;;;15.35;9.73;;;10.50;49.70;;;;;;5020121;28;20445;-82
2022/02/15 10:16:10;;;;;;;12.07;9.70;;;10.40;49.70;;;;;;5042260;28;20086;-82
2022/02/15 10:18:37;;;;;;;12.80;9.55;;;10.40;49.80;;;;;;5035990;28;20026;-81
2022/02/15 10:21:04;;;;;;;14.50;9.77;;;10.40;49.70;;;;;;5035896;28;20132;-82
2022/02/15 10:23:34;;;;;;;13.75;9.35;;;10.40;49.50;;;;;;5037032;28;20082;-82
2022/02/15 10:26:00;;;;;;;13.07;10.15;;;10.40;49.40;;;;;;5036230;28;20617;-81
2022/02/15 10:28:31;;;;;;;17.33;9.27;;;10.40;49.50;;;;;;5051742;28;20605;-81
2022/02/15 10:30:59;;;;;;;14.35;9.38;;;10.40;49.70;;;;;;5034712;28;20030;-82
2022/02/15 10:33:38;;;;;;;13.65;9.45;;;10.30;49.70;;;;;;5050277;28;20041;-81
2022/02/15 10:36:10;;;;;;;17.05;10.00;;;10.30;49.70;;;;;;5035950;28;20172;-81
2022/02/15 10:38:39;;;;;;;14.15;9.70;;;10.30;49.60;;;;;;5032864;28;20061;-81
2022/02/15 10:41:11;;;;;;;20.75;10.80;;;10.30;49.60;;;;;;5050268;28;20048;-81
2022/02/15 20:19:33;;;;;;;17.88;7.32;;;6.90;61.30;;;;;;5074682;27;20109;-88
2022/02/15 20:21:59;;;;;;;15.63;7.30;;;7.40;61.90;;;;;;5014448;28;20039;-88
2022/02/15 20:24:25;;;;;;;14.68;6.57;;;7.80;60.40;;;;;;5014890;28;20042;-88
2022/02/15 20:26:51;;;;;;;15.38;6.28;;;8.10;58.40;;;;;;5007193;28;20061;-87
2022/02/15 20:29:17;;;;;;;12.20;5.85;;;8.30;56.50;;;;;;5017460;28;20030;-87
2022/02/15 20:31:43;;;;;;;12.15;5.30;;;8.40;55.00;;;;;;5042420;28;20135;-87
2022/02/15 20:34:11;;;;;;;11.73;5.57;;;8.50;53.80;;;;;;5006553;28;20584;-87
2022/02/15 20:36:38;;;;;;;9.75;4.78;;;8.60;52.80;;;;;;5026296;28;20115;-85
2022/02/15 20:39:05;;;;;;;9.05;4.43;;;8.70;52.20;;;;;;5021010;28;20046;-89
2022/02/15 20:41:32;;;;;;;8.95;5.20;;;8.70;51.70;;;;;;5023856;28;20134;-88
2022/02/15 20:43:58;;;;;;;9.02;4.80;;;8.70;51.30;;;;;;5007465;28;20029;-86
2022/02/15 20:46:26;;;;;;;6.22;4.00;;;8.70;50.80;;;;;;5018680;28;20092;-88
2022/02/15 20:48:52;;;;;;;10.48;4.95;;;8.70;50.50;;;;;;5034703;28;20065;-87
2022/02/15 20:51:20;;;;;;;7.00;3.92;;;8.70;50.20;;;;;;5021931;28;20069;-87
2022/02/15 20:53:46;;;;;;;6.95;4.20;;;8.80;50.10;;;;;;5022080;28;20120;-86
2022/02/15 20:56:13;;;;;;;7.82;3.95;;;8.80;49.90;;;;;;5006211;28;20516;-86
2022/02/15 20:58:41;;;;;;;10.27;4.32;;;8.70;49.90;;;;;;5051238;28;20072;-87
2022/02/15 21:01:18;;;;;;;7.18;4.13;;;8.80;49.60;;;;;;5034731;28;20054;-87
2022/02/15 21:03:47;;;;;;;5.03;3.55;;;8.70;49.40;;;;;;5035906;28;20034;-87
2022/02/15 21:06:13;;;;;;;7.03;4.28;;;8.80;49.20;;;;;;5051470;28;20057;-86
2022/02/15 21:08:39;;;;;;;5.55;3.53;;;8.80;49.10;;;;;;5016114;28;20069;-87
2022/02/15 21:11:09;;;;;;;6.28;4.20;;;8.80;49.00;;;;;;5016682;28;20125;-87
2022/02/15 21:13:35;;;;;;;6.57;3.95;;;8.70;48.80;;;;;;5018592;28;20149;-88
2022/02/15 21:16:01;;;;;;;7.15;4.35;;;8.80;48.80;;;;;;5018030;28;20025;-86
2022/02/15 21:18:29;;;;;;;6.78;3.95;;;8.80;48.80;;;;;;5020132;28;20477;-87
2022/02/15 21:20:54;;;;;;;9.30;3.95;;;8.80;48.60;;;;;;5034444;28;20567;-87
2022/02/15 21:23:20;;;;;;;8.93;4.65;;;8.70;48.50;;;;;;5018188;28;20133;-88
2022/02/15 21:25:46;;;;;;;4.07;3.15;;;8.80;48.60;;;;;;5016152;28;20036;-89
2022/02/15 21:28:16;;;;;;;5.97;3.60;;;8.80;48.50;;;;;;5018122;28;20046;-85
2022/02/15 21:30:42;;;;;;;4.95;3.40;;;8.70;48.40;;;;;;5011900;28;20101;-90
2022/02/15 21:33:10;;;;;;;6.20;3.75;;;8.70;48.30;;;;;;5035037;28;20053;-89
2022/02/15 21:35:39;;;;;;;4.35;3.30;;;8.80;48.30;;;;;;4998390;28;20042;-86
2022/02/15 21:38:08;;;;;;;5.28;3.88;;;8.80;48.30;;;;;;5049204;28;20192;-90
2022/02/15 21:40:39;;;;;;;5.57;3.40;;;8.70;48.20;;;;;;5044922;28;20041;-90
2022/02/15 21:43:05;;;;;;;5.13;3.78;;;8.70;48.10;;;;;;5042971;28;20045;-90
2022/02/15 21:45:31;;;;;;;5.47;3.95;;;8.70;48.10;;;;;;4991212;28;20036;-89
2022/02/15 21:47:56;;;;;;;5.32;3.50;;;8.70;48.10;;;;;;5002595;28;20101;-89
2022/02/15 21:50:24;;;;;;;6.45;3.50;;;8.70;48.10;;;;;;4991502;28;20045;-90
2022/02/15 21:52:50;;;;;;;6.68;3.30;;;8.70;48.00;;;;;;5002699;28;20030;-89
2022/02/15 21:55:16;;;;;;;6.78;3.58;;;8.70;48.10;;;;;;5003592;28;20042;-89
2022/02/15 21:57:42;;;;;;;6.32;3.78;;;8.70;48.00;;;;;;5005954;28;20102;-90
2022/02/15 22:00:11;;;;;;;4.95;3.30;;;8.70;47.90;;;;;;5005179;28;20120;-90
2022/02/15 22:02:41;;;;;;;5.68;3.47;;;8.70;47.90;;;;;;5003130;28;20037;-91
2022/02/15 22:05:12;;;;;;;5.97;3.55;;;8.70;47.90;;;;;;5007022;28;20392;-92
2022/02/15 22:07:39;;;;;;;4.82;3.17;;;8.70;47.80;;;;;;5006389;28;20041;-92
2022/02/15 22:10:07;;;;;;;5.28;3.47;;;8.60;47.80;;;;;;5019994;28;20372;-94
2022/02/15 22:12:33;;;;;;;7.05;4.55;;;8.70;47.80;;;;;;5003589;28;20045;-90
2022/02/15 22:15:00;;;;;;;5.13;3.30;;;8.70;47.70;;;;;;5007102;28;20133;-91
2022/02/15 22:17:26;;;;;;;5.70;3.70;;;8.70;47.70;;;;;;4990672;28;20073;-90
2022/02/15 22:19:52;;;;;;;5.30;3.47;;;8.60;47.60;;;;;;5020465;28;20029;-89
2022/02/15 22:22:21;;;;;;;5.93;3.60;;;8.70;47.70;;;;;;4988782;28;20037;-91
2022/02/15 22:24:47;;;;;;;6.18;3.65;;;8.60;47.60;;;;;;5020367;28;20453;-91
2022/02/15 22:27:13;;;;;;;5.68;3.80;;;8.60;47.60;;;;;;5004303;28;20088;-91
2022/02/15 22:29:39;;;;;;;4.97;3.40;;;8.60;47.60;;;;;;5002850;28;20089;-90
2022/02/15 22:32:05;;;;;;;6.25;3.40;;;8.60;47.50;;;;;;5004501;28;20029;-89
2022/02/15 22:34:32;;;;;;;4.50;3.20;;;8.60;47.50;;;;;;5021767;28;20153;-88
2022/02/15 22:36:58;;;;;;;5.18;3.60;;;8.60;47.50;;;;;;5005281;28;20070;-88